createdAt,value
2022-09-12T00:00:50.675Z,98593.19
2022-09-12T00:03:17.493Z,98583.78
2022-09-12T00:05:47.720Z,98587.28
2022-09-12T00:08:14.663Z,98585.97
2022-09-12T00:10:43.037Z,98582.69
2022-09-12T00:13:10.469Z,98583.19
2022-09-12T00:15:42.305Z,98579.44
2022-09-12T00:18:10.358Z,98583.19
2022-09-12T00:20:42.300Z,98579.44
2022-09-12T00:23:08.722Z,98584.75
2022-09-12T00:25:35.154Z,98578.22
2022-09-12T00:28:01.748Z,98580.41
2022-09-12T00:30:28.182Z,98570.63
2022-09-12T00:32:54.800Z,98571.47
2022-09-12T00:35:21.259Z,98569.09
2022-09-12T00:37:47.662Z,98567.19
2022-09-12T00:40:14.414Z,98572.00
2022-09-12T00:42:40.854Z,98560.91
2022-09-12T00:45:23.217Z,98569.59
2022-09-12T00:47:49.756Z,98565.53
2022-09-12T00:50:17.493Z,98556.38
2022-09-12T00:52:53.299Z,98563.56
2022-09-12T00:55:24.673Z,98561.69
2022-09-12T00:57:54.256Z,98565.16
2022-09-12T01:00:23.523Z,98557.06
2022-09-12T01:02:53.528Z,98561.84
2022-09-12T01:05:22.305Z,98565.88
2022-09-12T01:07:50.431Z,98555.91
2022-09-12T01:10:18.911Z,98555.06
2022-09-12T01:12:46.361Z,98554.56
2022-09-12T01:15:13.078Z,98547.72
2022-09-12T01:17:56.125Z,98549.84
2022-09-12T01:20:45.382Z,98546.47
2022-09-12T01:23:44.500Z,98541.78
2022-09-12T01:26:55.519Z,98541.50
2022-09-12T01:30:04.842Z,98542.34
2022-09-12T01:33:09.198Z,98536.94
2022-09-12T01:35:44.835Z,98531.28
2022-09-12T01:38:34.464Z,98528.53
2022-09-12T01:41:15.640Z,98525.13
2022-09-12T01:44:02.029Z,98526.38
2022-09-12T01:46:50.529Z,98520.88
2022-09-12T01:49:38.050Z,98520.28
2022-09-12T01:52:21.306Z,98522.16
2022-09-12T01:55:00.364Z,98518.53
2022-09-12T01:57:37.218Z,98521.69
2022-09-12T02:00:11.493Z,98526.03
2022-09-12T02:03:02.690Z,98524.66
2022-09-12T02:05:39.649Z,98521.69
2022-09-12T02:08:09.883Z,98520.66
2022-09-12T02:10:52.831Z,98528.69
2022-09-12T02:13:27.159Z,98517.00
2022-09-12T02:15:59.969Z,98522.09
2022-09-12T02:18:29.061Z,98523.69
2022-09-12T02:20:56.969Z,98520.34
2022-09-12T02:23:27.778Z,98517.22
2022-09-12T02:26:02.488Z,98522.06
2022-09-12T02:28:36.816Z,98515.31
2022-09-12T02:31:22.042Z,98517.69
2022-09-12T02:33:55.763Z,98511.97
2022-09-12T02:36:31.779Z,98513.97
2022-09-12T02:38:58.585Z,98511.97
2022-09-12T02:41:25.138Z,98514.28
2022-09-12T02:43:53.666Z,98514.38
2022-09-12T02:46:28.427Z,98518.81
2022-09-12T02:48:55.925Z,98516.38
2022-09-12T02:51:23.740Z,98520.16
2022-09-12T02:53:51.003Z,98502.34
2022-09-12T02:56:24.719Z,98509.69
2022-09-12T02:58:52.288Z,98506.91
2022-09-12T03:01:49.656Z,98506.28
2022-09-12T03:04:18.823Z,98509.22
2022-09-12T03:06:54.444Z,98507.91
2022-09-12T03:09:58.960Z,98504.16
2022-09-12T03:12:37.524Z,98506.09
2022-09-12T03:15:24.373Z,98503.16
2022-09-12T03:18:19.203Z,98501.59
2022-09-12T03:20:50.645Z,98503.78
2022-09-12T03:23:33.256Z,98499.94
2022-09-12T03:26:12.887Z,98504.81
2022-09-12T03:28:42.426Z,98500.97
2022-09-12T03:31:17.004Z,98506.91
2022-09-12T03:33:44.210Z,98506.72
2022-09-12T03:36:23.735Z,98503.53
2022-09-12T03:38:50.429Z,98499.78
2022-09-12T03:41:16.903Z,98498.03
2022-09-12T03:43:44.626Z,98498.13
2022-09-12T03:46:11.133Z,98500.81
2022-09-12T03:48:37.682Z,98501.81
2022-09-12T03:51:06.189Z,98497.63
2022-09-12T03:53:33.089Z,98495.69
2022-09-12T03:55:59.565Z,98495.13
2022-09-12T03:58:30.567Z,98491.91
2022-09-12T04:00:57.065Z,98496.00
2022-09-12T04:03:23.504Z,98494.59
2022-09-12T04:05:49.919Z,98492.94
2022-09-12T04:08:16.430Z,98494.88
2022-09-12T04:10:42.861Z,98495.84
2022-09-12T04:13:09.338Z,98485.13
2022-09-12T04:15:35.750Z,98491.72
2022-09-12T04:18:05.696Z,98490.28
2022-09-12T04:20:32.483Z,98493.31
2022-09-12T04:22:58.875Z,98482.31
2022-09-12T04:25:25.618Z,98484.94
2022-09-12T04:27:52.055Z,98478.56
2022-09-12T04:30:18.593Z,98478.13
2022-09-12T04:32:45.257Z,98476.50
2022-09-12T04:35:12.830Z,98475.44
2022-09-12T04:37:39.285Z,98473.84
2022-09-12T04:40:06.118Z,98474.16
2022-09-12T04:42:32.548Z,98480.59
2022-09-12T04:44:58.954Z,98479.25
2022-09-12T04:47:25.354Z,98478.91
2022-09-12T04:49:52.388Z,98477.97
2022-09-12T04:52:18.805Z,98475.25
2022-09-12T04:54:45.476Z,98477.41
2022-09-12T04:57:11.908Z,98475.81
2022-09-12T04:59:38.578Z,98483.19
2022-09-12T05:02:05.873Z,98478.47
2022-09-12T05:04:32.379Z,98490.94
2022-09-12T05:06:58.850Z,98488.72
2022-09-12T05:09:25.315Z,98489.28
2022-09-12T05:12:07.120Z,98484.16
2022-09-12T05:14:34.367Z,98491.50
2022-09-12T05:17:01.874Z,98486.84
2022-09-12T05:19:30.460Z,98491.03
2022-09-12T05:21:56.997Z,98478.59
2022-09-12T05:24:24.654Z,98480.94
2022-09-12T05:26:51.235Z,98486.63
2022-09-12T05:29:17.793Z,98484.47
2022-09-12T05:31:44.211Z,98485.00
2022-09-12T05:34:11.282Z,98487.72
2022-09-12T05:36:38.587Z,98483.53
2022-09-12T05:39:05.864Z,98478.50
2022-09-12T05:41:33.787Z,98489.81
2022-09-12T05:44:05.569Z,98492.53
2022-09-12T05:46:40.310Z,98499.31
2022-09-12T05:49:08.825Z,98502.03
2022-09-12T05:51:38.381Z,98511.28
2022-09-12T05:54:07.718Z,98509.72
2022-09-12T05:56:39.361Z,98501.09
2022-09-12T05:59:12.021Z,98506.78
2022-09-12T06:01:38.809Z,98508.63
2022-09-12T06:04:07.011Z,98511.06
2022-09-12T06:06:38.528Z,98510.22
2022-09-12T06:09:06.128Z,98511.78
2022-09-12T06:11:35.116Z,98511.63
2022-09-12T06:14:01.994Z,98512.38
2022-09-12T06:16:33.934Z,98520.09
2022-09-12T06:19:03.676Z,98507.94
2022-09-12T06:21:34.457Z,98519.88
2022-09-12T06:24:01.757Z,98523.28
2022-09-12T06:26:29.212Z,98515.91
2022-09-12T06:28:57.060Z,98510.34
2022-09-12T06:31:35.530Z,98511.75
2022-09-12T06:34:04.463Z,98513.56
2022-09-12T06:36:38.057Z,98509.03
2022-09-12T06:39:11.402Z,98513.72
2022-09-12T06:41:43.003Z,98506.66
2022-09-12T06:44:19.319Z,98504.97
2022-09-12T06:46:46.112Z,98500.59
2022-09-12T06:49:12.909Z,98490.41
2022-09-12T06:51:39.503Z,98494.47
2022-09-12T06:54:05.922Z,98490.28
2022-09-12T06:56:32.528Z,98485.81
2022-09-12T06:58:59.316Z,98487.44
2022-09-12T07:01:28.413Z,98487.16
2022-09-12T07:03:57.410Z,98479.78
2022-09-12T07:06:31.622Z,98462.69
2022-09-12T07:09:02.773Z,98472.59
2022-09-12T07:11:32.021Z,98470.28
2022-09-12T07:13:59.902Z,98468.38
2022-09-12T07:16:26.730Z,98469.03
2022-09-12T07:18:55.227Z,98472.25
2022-09-12T07:21:22.137Z,98478.53
2022-09-12T07:23:49.294Z,98460.41
2022-09-12T07:26:16.813Z,98466.66
2022-09-12T07:28:44.128Z,98463.66
2022-09-12T07:31:13.477Z,98471.16
2022-09-12T07:33:41.308Z,98469.63
2022-09-12T07:36:11.871Z,98460.31
2022-09-12T07:38:41.907Z,98461.00
2022-09-12T07:41:12.247Z,98465.22
2022-09-12T07:43:38.648Z,98470.50
2022-09-12T07:46:05.386Z,98461.47
2022-09-12T07:48:32.203Z,98451.69
2022-09-12T07:51:04.356Z,98460.31
2022-09-12T07:53:33.852Z,98451.75
2022-09-12T07:56:00.578Z,98444.28
2022-09-12T07:58:26.982Z,98446.97
2022-09-12T08:00:53.624Z,98443.94
2022-09-12T08:03:20.669Z,98450.31
2022-09-12T08:05:47.177Z,98444.72
2022-09-12T08:08:13.755Z,98447.31
2022-09-12T08:10:40.205Z,98447.59
2022-09-12T08:13:08.757Z,98445.44
2022-09-12T08:15:36.608Z,98446.25
2022-09-12T08:18:03.105Z,98447.28
2022-09-12T08:20:30.375Z,98436.41
2022-09-12T08:22:56.782Z,98445.09
2022-09-12T08:25:23.501Z,98450.38
2022-09-12T08:27:50.252Z,98449.69
2022-09-12T08:30:16.682Z,98443.97
2022-09-12T08:32:43.101Z,98444.78
2022-09-12T08:35:09.783Z,98435.28
2022-09-12T08:37:36.199Z,98446.41
2022-09-12T08:40:02.820Z,98440.88
2022-09-12T08:43:10.697Z,98436.03
2022-09-12T08:45:47.795Z,98436.63
2022-09-12T08:48:14.391Z,98443.88
2022-09-12T08:50:49.213Z,98447.47
2022-09-12T08:53:20.602Z,98454.63
2022-09-12T08:55:56.236Z,98448.78
2022-09-12T08:58:24.531Z,98444.56
2022-09-12T09:01:08.092Z,98442.19
2022-09-12T09:03:40.302Z,98444.59
2022-09-12T09:06:18.338Z,98450.63
2022-09-12T09:09:11.918Z,98440.34
2022-09-12T09:12:15.825Z,98443.78
2022-09-12T09:15:05.230Z,98440.19
2022-09-12T09:17:38.065Z,98448.50
2022-09-12T09:20:22.577Z,98442.72
2022-09-12T09:23:03.793Z,98447.72
2022-09-12T09:26:04.568Z,98442.88
2022-09-12T09:28:42.396Z,98433.53
2022-09-12T09:31:17.314Z,98432.69
2022-09-12T09:33:46.332Z,98433.47
2022-09-12T09:36:25.975Z,98428.69
2022-09-12T09:39:05.975Z,98428.72
2022-09-12T09:41:47.765Z,98434.22
2022-09-12T09:44:14.351Z,98432.75
2022-09-12T09:46:41.042Z,98427.53
2022-09-12T09:49:12.687Z,98431.91
2022-09-12T09:51:40.908Z,98426.78
2022-09-12T09:54:18.024Z,98423.75
2022-09-12T09:56:45.008Z,98427.06
2022-09-12T09:59:20.864Z,98423.88
2022-09-12T10:01:57.483Z,98425.56
2022-09-12T10:04:30.518Z,98424.69
2022-09-12T10:07:05.903Z,98427.44
2022-09-12T10:09:36.187Z,98408.28
2022-09-12T10:12:26.244Z,98399.72
2022-09-12T10:15:17.027Z,98415.34
2022-09-12T10:17:49.537Z,98414.13
2022-09-12T10:20:37.414Z,98410.78
2022-09-12T10:23:28.424Z,98398.50
2022-09-12T10:26:01.371Z,98405.56
2022-09-12T10:28:45.887Z,98405.47
2022-09-12T10:31:28.847Z,98405.44
2022-09-12T10:34:00.181Z,98404.75
2022-09-12T10:36:36.696Z,98403.66
2022-09-12T10:39:03.950Z,98406.81
2022-09-12T10:41:41.024Z,98404.09
2022-09-12T10:44:14.260Z,98405.75
2022-09-12T10:46:40.707Z,98399.06
2022-09-12T10:49:28.551Z,98379.22
2022-09-12T10:51:56.761Z,98390.75
2022-09-12T10:54:27.011Z,98387.97
2022-09-12T10:57:13.738Z,98377.28
2022-09-12T10:59:56.594Z,98381.31
2022-09-12T11:02:48.177Z,98386.78
2022-09-12T11:05:26.744Z,98391.38
2022-09-12T11:08:04.739Z,98370.69
2022-09-12T11:11:16.122Z,98375.34
2022-09-12T11:13:55.270Z,98366.25
2022-09-12T11:16:43.270Z,98364.50
2022-09-12T11:19:34.038Z,98370.81
2022-09-12T11:22:51.681Z,98370.13
2022-09-12T11:25:35.512Z,98368.31
2022-09-12T11:28:14.078Z,98368.50
2022-09-12T11:30:56.732Z,98363.25
2022-09-12T11:33:45.958Z,98362.00
2022-09-12T11:36:20.564Z,98347.78
2022-09-12T11:38:52.228Z,98357.31
2022-09-12T11:41:24.938Z,98355.56
2022-09-12T11:44:11.033Z,98355.94
2022-09-12T11:46:40.096Z,98353.38
2022-09-12T11:49:09.447Z,98350.81
2022-09-12T11:51:40.630Z,98351.94
2022-09-12T11:54:25.426Z,98348.91
2022-09-12T11:57:03.093Z,98348.25
2022-09-12T11:59:44.070Z,98352.06
2022-09-12T12:02:15.093Z,98337.94
2022-09-12T12:05:09.342Z,98342.91
2022-09-12T12:07:45.621Z,98341.03
2022-09-12T12:10:41.070Z,98332.16
2022-09-12T12:13:23.229Z,98325.19
2022-09-12T12:15:55.073Z,98326.09
2022-09-12T12:18:27.897Z,98333.63
2022-09-12T12:20:55.877Z,98317.47
2022-09-12T12:23:34.530Z,98322.78
2022-09-12T12:26:03.532Z,98325.81
2022-09-12T12:28:42.208Z,98311.63
2022-09-12T12:31:10.702Z,98319.06
2022-09-12T12:33:37.172Z,98312.41
2022-09-12T12:36:07.886Z,98299.91
2022-09-12T12:38:37.067Z,98298.84
2022-09-12T12:41:18.563Z,98290.44
2022-09-12T12:43:47.289Z,98291.91
2022-09-12T12:46:22.468Z,98281.84
2022-09-12T12:49:10.102Z,98285.81
2022-09-12T12:51:54.713Z,98285.00
2022-09-12T12:54:49.631Z,98288.38
2022-09-12T12:57:27.050Z,98285.56
2022-09-12T13:00:22.056Z,98287.16
2022-09-12T13:03:10.012Z,98275.09
2022-09-12T13:05:50.092Z,98280.25
2022-09-12T13:08:19.842Z,98273.38
2022-09-12T13:11:00.358Z,98278.25
2022-09-12T13:13:42.422Z,98275.09
2022-09-12T13:16:28.537Z,98270.59
2022-09-12T13:18:56.574Z,98265.72
2022-09-12T13:21:23.810Z,98264.16
2022-09-12T13:24:13.897Z,98260.97
2022-09-12T13:26:46.080Z,98257.13
2022-09-12T13:29:18.913Z,98249.72
2022-09-12T13:31:52.924Z,98251.41
2022-09-12T13:34:27.750Z,98242.88
2022-09-12T13:37:18.306Z,98243.78
2022-09-12T13:39:55.475Z,98252.88
2022-09-12T13:42:52.483Z,98246.69
2022-09-12T13:45:29.642Z,98239.50
2022-09-12T13:48:00.809Z,98248.69
2022-09-12T13:50:33.641Z,98236.34
2022-09-12T13:53:03.770Z,98244.97
2022-09-12T13:55:37.301Z,98235.13
2022-09-12T13:58:15.656Z,98238.22
2022-09-12T14:00:42.092Z,98222.31
2022-09-12T14:03:47.789Z,98225.44
2022-09-12T14:06:18.219Z,98228.88
2022-09-12T14:08:47.031Z,98221.09
2022-09-12T14:11:24.933Z,98218.84
2022-09-12T14:13:52.645Z,98217.19
2022-09-12T14:16:21.434Z,98217.34
2022-09-12T14:18:49.902Z,98216.75
2022-09-12T14:21:30.267Z,98208.78
2022-09-12T14:23:57.617Z,98204.28
2022-09-12T14:26:24.889Z,98201.22
2022-09-12T14:28:51.925Z,98205.97
2022-09-12T14:31:32.748Z,98200.41
2022-09-12T14:34:09.985Z,98203.13
2022-09-12T14:36:46.381Z,98199.88
2022-09-12T14:39:39.743Z,98196.47
2022-09-12T14:42:29.969Z,98187.06
2022-09-12T14:45:04.063Z,98191.38
2022-09-12T14:47:39.090Z,98194.63
2022-09-12T14:50:16.578Z,98190.97
2022-09-12T14:52:43.829Z,98189.75
2022-09-12T14:55:19.002Z,98192.75
2022-09-12T14:57:45.921Z,98182.41
2022-09-12T15:00:12.363Z,98182.84
2022-09-12T15:02:40.173Z,98179.19
2022-09-12T15:05:06.534Z,98177.22
2022-09-12T15:07:41.896Z,98178.34
2022-09-12T15:10:22.995Z,98177.84
2022-09-12T15:12:49.714Z,98176.31
2022-09-12T15:15:19.309Z,98176.31
2022-09-12T15:17:45.742Z,98177.72
2022-09-12T15:20:13.513Z,98180.56
2022-09-12T15:22:41.613Z,98176.72
2022-09-12T15:25:09.171Z,98184.28
2022-09-12T15:27:35.601Z,98177.66
2022-09-12T15:30:02.327Z,98184.31
2022-09-12T15:32:30.276Z,98181.03
2022-09-12T15:34:56.983Z,98186.63
2022-09-12T15:37:25.403Z,98184.19
2022-09-12T15:39:52.040Z,98178.72
2022-09-12T15:42:26.895Z,98172.78
2022-09-12T15:44:53.839Z,98171.75
2022-09-12T15:47:20.253Z,98177.19
2022-09-12T15:49:46.652Z,98171.41
2022-09-12T15:52:16.265Z,98169.88
2022-09-12T15:54:43.769Z,98180.00
2022-09-12T15:57:10.305Z,98171.09
2022-09-12T15:59:37.134Z,98168.34
2022-09-12T16:02:03.626Z,98168.06
2022-09-12T16:04:30.748Z,98168.34
2022-09-12T16:06:57.253Z,98170.63
2022-09-12T16:09:24.107Z,98159.78
2022-09-12T16:11:50.647Z,98154.38
2022-09-12T16:14:18.836Z,98148.41
2022-09-12T16:16:53.589Z,98149.44
2022-09-12T16:19:20.205Z,98136.84
2022-09-12T16:21:46.609Z,98153.63
2022-09-12T16:24:13.030Z,98151.59
2022-09-12T16:26:39.479Z,98151.41
2022-09-12T16:29:06.140Z,98149.03
2022-09-12T16:31:32.597Z,98155.25
2022-09-12T16:33:59.009Z,98149.94
2022-09-12T16:36:25.453Z,98152.38
2022-09-12T16:38:54.138Z,98143.81
2022-09-12T16:41:22.886Z,98139.72
2022-09-12T16:43:49.306Z,98129.41
2022-09-12T16:46:21.446Z,98138.16
2022-09-12T16:48:52.374Z,98132.50
2022-09-12T16:51:22.449Z,98124.88
2022-09-12T16:53:49.301Z,98129.25
2022-09-12T16:56:15.877Z,98128.97
2022-09-12T16:58:42.740Z,98124.16
2022-09-12T17:01:12.110Z,98129.03
2022-09-12T17:03:38.901Z,98123.06
2022-09-12T17:06:08.523Z,98122.78
2022-09-12T17:08:38.032Z,98121.81
2022-09-12T17:11:07.531Z,98126.47
2022-09-12T17:14:00.179Z,98124.41
2022-09-12T17:16:21.742Z,98131.47
2022-09-12T17:18:49.300Z,98125.53
2022-09-12T17:21:15.730Z,98124.28
2022-09-12T17:23:42.687Z,98129.91
2022-09-12T17:26:10.585Z,98125.19
2022-09-12T17:28:38.448Z,98125.63
2022-09-12T17:31:09.785Z,98127.72
2022-09-12T17:33:36.938Z,98125.41
2022-09-12T17:36:15.329Z,98126.47
2022-09-12T17:38:43.306Z,98125.22
2022-09-12T17:41:16.050Z,98135.19
2022-09-12T17:43:42.716Z,98122.94
2022-09-12T17:46:09.301Z,98129.13
2022-09-12T17:48:36.219Z,98138.72
2022-09-12T17:51:10.540Z,98135.63
2022-09-12T17:53:37.472Z,98138.00
2022-09-12T17:56:04.816Z,98137.63
2022-09-12T17:58:32.235Z,98137.88
2022-09-12T18:01:26.189Z,98141.81
2022-09-12T18:03:57.767Z,98141.81
2022-09-12T18:06:24.577Z,98143.94
2022-09-12T18:08:51.070Z,98139.69
2022-09-12T18:11:17.622Z,98140.56
2022-09-12T18:13:44.081Z,98136.38
2022-09-12T18:16:12.501Z,98147.69
2022-09-12T18:18:39.035Z,98146.53
2022-09-12T18:21:07.940Z,98152.66
2022-09-12T18:23:34.496Z,98163.09
2022-09-12T18:26:03.765Z,98160.47
2022-09-12T18:28:33.326Z,98160.63
2022-09-12T18:30:59.989Z,98158.63
2022-09-12T18:33:26.487Z,98152.25
2022-09-12T18:35:52.992Z,98153.38
2022-09-12T18:38:19.501Z,98151.53
2022-09-12T18:40:45.953Z,98150.19
2022-09-12T18:43:12.403Z,98152.38
2022-09-12T18:45:38.801Z,98155.25
2022-09-12T18:48:06.137Z,98155.38
2022-09-12T18:50:33.085Z,98155.66
2022-09-12T18:53:00.004Z,98158.72
2022-09-12T18:55:26.858Z,98156.69
2022-09-12T18:57:55.440Z,98161.34
2022-09-12T19:00:21.916Z,98157.13
2022-09-12T19:02:48.320Z,98162.97
2022-09-12T19:05:14.856Z,98160.69
2022-09-12T19:07:41.309Z,98153.13
2022-09-12T19:10:08.968Z,98159.03
2022-09-12T19:12:35.447Z,98160.84
2022-09-12T19:15:02.038Z,98164.13
2022-09-12T19:17:28.484Z,98156.50
2022-09-12T19:19:55.463Z,98164.91
2022-09-12T19:22:22.200Z,98169.25
2022-09-12T19:24:48.634Z,98169.25
2022-09-12T19:27:16.079Z,98165.25
2022-09-12T19:29:42.630Z,98168.97
2022-09-12T19:32:09.057Z,98164.28
2022-09-12T19:34:35.510Z,98165.91
2022-09-12T19:37:01.925Z,98160.09
2022-09-12T19:39:28.424Z,98162.84
2022-09-12T19:41:54.830Z,98172.69
2022-09-12T19:44:21.263Z,98179.19
2022-09-12T19:46:47.813Z,98175.47
2022-09-12T19:49:14.354Z,98172.25
2022-09-12T19:51:41.137Z,98178.78
2022-09-12T19:54:07.926Z,98179.03
2022-09-12T19:56:34.449Z,98166.03
2022-09-12T19:59:00.898Z,98168.94
2022-09-12T20:01:30.847Z,98162.41
2022-09-12T20:03:58.310Z,98157.94
2022-09-12T20:06:25.707Z,98155.84
2022-09-12T20:08:52.083Z,98161.91
2022-09-12T20:11:21.800Z,98164.66
2022-09-12T20:13:48.230Z,98168.81
2022-09-12T20:16:22.019Z,98169.78
2022-09-12T20:18:53.936Z,98176.53
2022-09-12T20:21:24.890Z,98168.66
2022-09-12T20:23:51.736Z,98171.50
2022-09-12T20:26:20.202Z,98168.75
2022-09-12T20:28:46.887Z,98163.16
2022-09-12T20:31:16.108Z,98163.00
2022-09-12T20:33:43.482Z,98161.38
2022-09-12T20:36:14.034Z,98156.72
2022-09-12T20:38:40.974Z,98156.69
2022-09-12T20:41:09.953Z,98155.19
2022-09-12T20:43:38.568Z,98159.47
2022-09-12T20:46:06.870Z,98164.25
2022-09-12T20:48:33.404Z,98158.91
2022-09-12T20:50:59.992Z,98159.72
2022-09-12T20:53:28.831Z,98162.25
2022-09-12T20:55:58.107Z,98158.22
2022-09-12T20:58:24.765Z,98165.69
2022-09-12T21:00:51.254Z,98156.09
2022-09-12T21:03:18.398Z,98154.56
2022-09-12T21:05:46.067Z,98154.56
2022-09-12T21:08:13.649Z,98151.72
2022-09-12T21:10:42.054Z,98159.09
2022-09-12T21:13:12.889Z,98155.00
2022-09-12T21:15:40.393Z,98159.44
2022-09-12T21:18:07.217Z,98152.16
2022-09-12T21:20:34.038Z,98155.00
2022-09-12T21:23:00.465Z,98153.66
2022-09-12T21:25:28.928Z,98158.97
2022-09-12T21:27:55.394Z,98163.13
2022-09-12T21:30:22.363Z,98164.09
2022-09-12T21:32:48.943Z,98164.78
2022-09-12T21:35:15.650Z,98161.75
2022-09-12T21:37:42.071Z,98158.75
2022-09-12T21:40:08.912Z,98160.09
2022-09-12T21:42:35.482Z,98161.75
2022-09-12T21:45:01.904Z,98166.22
2022-09-12T21:47:28.365Z,98161.34
2022-09-12T21:49:55.354Z,98152.75
2022-09-12T21:52:23.225Z,98154.19
2022-09-12T21:54:49.611Z,98145.63
2022-09-12T21:57:16.049Z,98147.78
2022-09-12T21:59:42.517Z,98155.06
2022-09-12T22:02:10.223Z,98156.91
2022-09-12T22:04:36.714Z,98164.41
2022-09-12T22:07:03.181Z,98159.94
2022-09-12T22:09:29.583Z,98156.31
2022-09-12T22:11:55.994Z,98144.38
2022-09-12T22:14:22.457Z,98142.69
2022-09-12T22:16:49.446Z,98139.25
2022-09-12T22:19:15.942Z,98139.66
2022-09-12T22:22:02.324Z,98143.59
2022-09-12T22:24:29.097Z,98129.31
2022-09-12T22:26:57.337Z,98141.59
2022-09-12T22:29:23.764Z,98141.00
2022-09-12T22:31:50.357Z,98143.22
2022-09-12T22:34:16.764Z,98142.16
2022-09-12T22:36:43.216Z,98153.13
2022-09-12T22:39:09.839Z,98150.97
2022-09-12T22:41:36.335Z,98144.06
2022-09-12T22:44:02.867Z,98146.88
2022-09-12T22:46:30.568Z,98150.38
2022-09-12T22:48:57.058Z,98143.22
2022-09-12T22:51:23.875Z,98144.84
2022-09-12T22:53:50.332Z,98148.75
2022-09-12T22:56:17.471Z,98147.84
2022-09-12T22:58:44.045Z,98144.44
2022-09-12T23:01:10.639Z,98143.41
2022-09-12T23:03:37.679Z,98141.59
2022-09-12T23:06:04.754Z,98135.16
2022-09-12T23:08:31.500Z,98126.91
2022-09-12T23:11:09.387Z,98124.97
2022-09-12T23:13:37.137Z,98117.94
2022-09-12T23:16:06.656Z,98126.19
2022-09-12T23:18:36.905Z,98112.97
2022-09-12T23:21:06.782Z,98118.22
2022-09-12T23:23:33.664Z,98118.22
2022-09-12T23:26:12.497Z,98110.66
2022-09-12T23:28:48.536Z,98112.19
2022-09-12T23:31:17.097Z,98108.22
2022-09-12T23:33:44.267Z,98109.50
2022-09-12T23:36:14.335Z,98106.00
2022-09-12T23:38:42.722Z,98111.22
2022-09-12T23:41:10.181Z,98107.19
2022-09-12T23:43:37.019Z,98109.91
2022-09-12T23:46:04.589Z,98113.44
2022-09-12T23:48:31.981Z,98102.34
2022-09-12T23:50:58.548Z,98106.19
2022-09-12T23:53:25.462Z,98102.41
2022-09-12T23:55:52.323Z,98097.38
2022-09-12T23:58:18.957Z,98094.97
